createdAt,value
2023-04-16T00:00:56.169Z,5.40
2023-04-16T00:03:24.596Z,9.53
2023-04-16T00:05:55.991Z,7.87
2023-04-16T00:08:25.556Z,6.60
2023-04-16T00:10:55.015Z,6.83
2023-04-16T00:13:23.413Z,6.67
2023-04-16T00:15:51.612Z,4.77
2023-04-16T00:18:21.358Z,2.80
2023-04-16T00:20:49.652Z,6.83
2023-04-16T00:23:18.215Z,7.07
2023-04-16T00:25:46.399Z,4.10
2023-04-16T00:28:14.466Z,8.40
2023-04-16T00:30:42.684Z,8.50
2023-04-16T00:33:10.904Z,7.30
2023-04-16T00:35:40.541Z,7.20
2023-04-16T00:38:08.570Z,8.13
2023-04-16T00:40:36.779Z,5.13
2023-04-16T00:43:04.985Z,5.63
2023-04-16T00:45:33.424Z,6.33
2023-04-16T00:48:02.465Z,5.90
2023-04-16T00:50:31.271Z,8.00
2023-04-16T00:53:00.903Z,4.90
2023-04-16T00:55:29.265Z,10.00
2023-04-16T00:58:16.024Z,5.00
2023-04-16T01:00:44.151Z,7.90
2023-04-16T01:03:12.739Z,7.47
2023-04-16T01:05:41.530Z,5.47
2023-04-16T01:08:18.045Z,6.07
2023-04-16T01:10:47.110Z,6.07
2023-04-16T01:13:15.364Z,4.70
2023-04-16T01:15:43.594Z,6.43
2023-04-16T01:18:16.249Z,3.87
2023-04-16T01:20:46.111Z,8.40
2023-04-16T01:23:14.312Z,6.57
2023-04-16T01:25:42.410Z,3.47
2023-04-16T01:28:10.861Z,5.10
2023-04-16T01:30:39.023Z,4.07
2023-04-16T01:33:08.314Z,6.60
2023-04-16T01:35:36.467Z,5.37
2023-04-16T01:38:07.978Z,9.17
2023-04-16T01:40:36.619Z,8.43
2023-04-16T01:43:05.021Z,5.33
2023-04-16T01:45:33.813Z,7.00
2023-04-16T01:48:02.465Z,4.47
2023-04-16T01:50:31.622Z,5.43
2023-04-16T01:52:59.788Z,7.23
2023-04-16T01:55:29.179Z,8.67
2023-04-16T01:57:57.300Z,7.73
2023-04-16T02:00:25.415Z,5.47
2023-04-16T02:02:53.831Z,4.90
2023-04-16T02:05:22.025Z,5.00
2023-04-16T02:07:50.134Z,5.33
2023-04-16T02:10:18.243Z,8.20
2023-04-16T02:12:47.725Z,10.50
2023-04-16T02:15:16.510Z,4.57
2023-04-16T02:17:46.697Z,7.40
2023-04-16T02:20:15.155Z,6.57
2023-04-16T02:22:43.946Z,7.90
2023-04-16T02:25:12.216Z,4.97
2023-04-16T02:27:40.294Z,6.97
2023-04-16T02:30:11.317Z,8.17
2023-04-16T02:32:39.379Z,6.70
2023-04-16T02:35:08.254Z,8.23
2023-04-16T02:37:36.438Z,5.33
2023-04-16T02:40:04.732Z,6.07
2023-04-16T02:42:32.875Z,6.20
2023-04-16T02:45:00.966Z,6.73
2023-04-16T02:47:30.500Z,6.67
2023-04-16T02:49:58.609Z,6.67
2023-04-16T02:52:26.696Z,6.17
2023-04-16T02:54:54.794Z,6.83
2023-04-16T02:57:22.845Z,7.73
2023-04-16T02:59:51.064Z,6.00
2023-04-16T03:02:19.395Z,6.93
2023-04-16T03:04:48.984Z,9.33
2023-04-16T03:07:18.432Z,7.40
2023-04-16T03:09:46.526Z,8.63
2023-04-16T03:12:14.597Z,8.53
2023-04-16T03:14:42.764Z,6.73
2023-04-16T03:17:10.922Z,6.33
2023-04-16T03:19:39.031Z,14.33
2023-04-16T03:22:08.600Z,7.70
2023-04-16T03:24:37.747Z,9.30
2023-04-16T03:27:06.014Z,6.27
2023-04-16T03:29:34.106Z,10.03
2023-04-16T03:32:03.660Z,10.00
2023-04-16T03:34:31.777Z,10.90
2023-04-16T03:37:00.051Z,6.30
2023-04-16T03:39:29.480Z,7.53
2023-04-16T03:41:57.587Z,8.70
2023-04-16T03:44:25.745Z,9.17
2023-04-16T03:46:54.003Z,7.17
2023-04-16T03:49:22.362Z,7.27
2023-04-16T03:51:50.491Z,7.40
2023-04-16T03:54:20.099Z,8.70
2023-04-16T03:56:52.173Z,8.63
2023-04-16T03:59:20.329Z,7.80
2023-04-16T04:01:48.456Z,9.73
2023-04-16T04:04:16.846Z,12.47
2023-04-16T04:06:46.744Z,9.33
2023-04-16T04:09:16.522Z,10.03
2023-04-16T04:11:44.805Z,13.43
2023-04-16T04:14:14.362Z,11.80
2023-04-16T04:16:42.982Z,10.37
2023-04-16T04:19:11.504Z,13.97
2023-04-16T04:21:40.206Z,10.23
2023-04-16T04:24:08.287Z,14.93
2023-04-16T04:26:36.406Z,11.50
2023-04-16T04:29:04.490Z,8.53
2023-04-16T04:31:34.137Z,11.47
2023-04-16T04:34:02.381Z,9.77
2023-04-16T04:36:31.065Z,13.07
2023-04-16T04:39:01.090Z,12.30
2023-04-16T04:41:29.197Z,10.33
2023-04-16T04:43:57.274Z,10.43
2023-04-16T04:46:25.506Z,14.70
2023-04-16T04:48:55.159Z,8.83
2023-04-16T04:51:23.330Z,15.07
2023-04-16T04:53:51.443Z,10.13
2023-04-16T04:56:19.548Z,9.73
2023-04-16T04:58:47.825Z,9.27
2023-04-16T05:01:16.132Z,7.13
2023-04-16T05:03:44.397Z,9.33
2023-04-16T05:06:13.990Z,8.73
2023-04-16T05:08:42.135Z,8.20
2023-04-16T05:11:10.302Z,9.40
2023-04-16T05:13:38.540Z,8.43
2023-04-16T05:16:07.590Z,13.37
2023-04-16T05:18:35.748Z,9.10
2023-04-16T05:21:03.962Z,8.23
2023-04-16T05:23:33.475Z,11.13
2023-04-16T05:26:01.776Z,9.67
2023-04-16T05:28:29.967Z,8.77
2023-04-16T05:30:58.127Z,10.77
2023-04-16T05:33:26.325Z,9.10
2023-04-16T05:35:54.807Z,9.47
2023-04-16T05:38:23.071Z,9.47
2023-04-16T05:40:52.778Z,10.03
2023-04-16T05:43:20.968Z,9.67
2023-04-16T05:45:49.230Z,9.57
2023-04-16T05:48:17.488Z,8.60
2023-04-16T05:50:48.388Z,7.13
2023-04-16T05:53:18.973Z,6.03
2023-04-16T05:55:47.888Z,7.40
2023-04-16T05:58:17.904Z,7.00
2023-04-16T06:00:47.417Z,7.87
2023-04-16T06:03:15.820Z,7.20
2023-04-16T06:05:44.174Z,7.85
2023-04-16T06:08:14.786Z,7.87
2023-04-16T06:10:43.253Z,7.60
2023-04-16T06:13:11.530Z,5.13
2023-04-16T06:15:41.829Z,5.23
2023-04-16T06:18:11.744Z,9.23
2023-04-16T06:20:40.265Z,8.50
2023-04-16T06:23:08.848Z,7.33
2023-04-16T06:25:37.043Z,8.27
2023-04-16T06:28:05.275Z,8.13
2023-04-16T06:30:33.726Z,7.63
2023-04-16T06:33:03.406Z,8.33
2023-04-16T06:35:31.482Z,7.17
2023-04-16T06:37:59.723Z,9.27
2023-04-16T06:40:27.942Z,6.37
2023-04-16T06:42:56.039Z,7.10
2023-04-16T06:45:24.128Z,9.03
2023-04-16T06:47:52.617Z,9.00
2023-04-16T06:50:23.722Z,9.37
2023-04-16T06:52:53.458Z,6.93
2023-04-16T06:55:21.794Z,9.20
2023-04-16T06:57:49.894Z,8.10
2023-04-16T07:00:18.377Z,8.03
2023-04-16T07:02:46.668Z,6.47
2023-04-16T07:05:14.787Z,6.43
2023-04-16T07:07:47.232Z,8.87
2023-04-16T07:10:15.477Z,7.67
2023-04-16T07:12:43.596Z,5.78
2023-04-16T07:15:12.613Z,6.53
2023-04-16T07:17:40.781Z,10.00
2023-04-16T07:20:10.361Z,6.77
2023-04-16T07:22:38.564Z,8.83
2023-04-16T07:25:09.220Z,7.57
2023-04-16T07:27:37.354Z,20.43
2023-04-16T07:30:06.426Z,14.47
2023-04-16T07:32:34.683Z,9.63
2023-04-16T07:35:03.916Z,7.20
2023-04-16T07:37:32.112Z,7.73
2023-04-16T07:40:00.960Z,9.80
2023-04-16T07:42:30.473Z,6.03
2023-04-16T07:44:58.795Z,7.33
2023-04-16T07:47:27.320Z,8.73
2023-04-16T07:49:55.942Z,9.47
2023-04-16T07:52:23.947Z,13.20
2023-04-16T07:54:52.897Z,8.90
2023-04-16T07:57:21.956Z,6.18
2023-04-16T07:59:51.541Z,7.03
2023-04-16T08:02:19.844Z,6.20
2023-04-16T08:04:48.182Z,8.45
2023-04-16T08:07:16.483Z,4.70
2023-04-16T08:09:53.112Z,8.77
2023-04-16T08:12:22.380Z,6.18
2023-04-16T08:14:51.942Z,4.93
2023-04-16T08:17:20.262Z,7.55
2023-04-16T08:19:48.332Z,5.60
2023-04-16T08:22:16.707Z,5.68
2023-04-16T08:24:45.853Z,8.30
2023-04-16T08:27:19.244Z,7.30
2023-04-16T08:29:48.708Z,5.97
2023-04-16T08:32:18.607Z,9.43
2023-04-16T08:34:46.930Z,7.90
2023-04-16T08:37:15.027Z,10.20
2023-04-16T08:39:43.071Z,11.85
2023-04-16T08:42:21.381Z,7.70
2023-04-16T08:44:50.442Z,16.40
2023-04-16T08:47:22.609Z,11.80
2023-04-16T08:49:51.282Z,10.15
2023-04-16T08:52:21.575Z,8.30
2023-04-16T08:55:01.440Z,14.85
2023-04-16T08:57:45.312Z,7.07
2023-04-16T09:00:14.768Z,14.95
2023-04-16T09:02:44.644Z,10.18
2023-04-16T09:05:17.475Z,7.47
2023-04-16T09:07:47.352Z,8.57
2023-04-16T09:10:16.444Z,8.02
2023-04-16T09:12:45.313Z,9.32
2023-04-16T09:15:16.889Z,8.55
2023-04-16T09:17:46.543Z,7.25
2023-04-16T09:20:15.066Z,4.85
2023-04-16T09:22:44.717Z,4.28
2023-04-16T09:25:13.340Z,6.78
2023-04-16T09:27:41.648Z,5.75
2023-04-16T09:30:23.670Z,11.63
2023-04-16T09:32:54.708Z,4.85
2023-04-16T09:35:23.143Z,9.00
2023-04-16T09:37:58.114Z,21.95
2023-04-16T09:40:27.720Z,6.35
2023-04-16T09:43:00.922Z,10.40
2023-04-16T09:45:34.118Z,9.45
2023-04-16T09:48:07.491Z,9.68
2023-04-16T09:50:35.665Z,7.53
2023-04-16T09:53:05.354Z,6.82
2023-04-16T09:55:34.162Z,5.82
2023-04-16T09:58:03.629Z,10.90
2023-04-16T10:00:32.431Z,7.93
2023-04-16T10:03:08.477Z,4.82
2023-04-16T10:05:36.721Z,9.75
2023-04-16T10:08:12.268Z,4.85
2023-04-16T10:10:40.956Z,9.25
2023-04-16T10:13:09.954Z,14.13
2023-04-16T10:15:38.453Z,6.63
2023-04-16T10:18:08.445Z,7.35
2023-04-16T10:20:38.086Z,5.60
2023-04-16T10:23:06.661Z,4.30
2023-04-16T10:25:35.489Z,10.15
2023-04-16T10:28:04.292Z,7.47
2023-04-16T10:30:32.906Z,5.68
2023-04-16T10:33:01.795Z,3.53
2023-04-16T10:35:31.706Z,6.50
2023-04-16T10:38:19.804Z,5.35
2023-04-16T10:40:49.360Z,8.95
2023-04-16T10:43:19.607Z,5.40
2023-04-16T10:45:49.780Z,11.85
2023-04-16T10:48:20.156Z,6.78
2023-04-16T10:50:58.583Z,5.85
2023-04-16T10:53:27.891Z,8.30
2023-04-16T10:56:15.517Z,5.35
2023-04-16T10:58:43.896Z,8.57
2023-04-16T11:01:16.855Z,7.55
2023-04-16T11:03:48.339Z,6.03
2023-04-16T11:06:19.269Z,15.32
2023-04-16T11:08:54.371Z,4.38
2023-04-16T11:11:23.531Z,6.28
2023-04-16T11:13:56.012Z,6.35
2023-04-16T11:16:26.471Z,6.43
2023-04-16T11:19:08.009Z,5.88
2023-04-16T11:21:38.422Z,7.07
2023-04-16T11:24:06.775Z,7.32
2023-04-16T11:26:35.209Z,9.40
2023-04-16T11:29:05.128Z,8.05
2023-04-16T11:31:33.241Z,14.43
2023-04-16T11:34:01.412Z,10.35
2023-04-16T11:36:29.461Z,9.63
2023-04-16T11:39:04.817Z,6.70
2023-04-16T11:41:32.945Z,8.13
2023-04-16T11:44:01.529Z,12.50
2023-04-16T11:46:40.498Z,6.88
2023-04-16T11:49:09.250Z,8.98
2023-04-16T11:51:41.361Z,7.03
2023-04-16T11:54:12.180Z,8.18
2023-04-16T11:56:46.920Z,7.65
2023-04-16T11:59:17.541Z,13.43
2023-04-16T12:01:48.835Z,10.05
2023-04-16T12:04:18.264Z,9.65
2023-04-16T12:07:08.564Z,10.95
2023-04-16T12:09:40.817Z,9.82
2023-04-16T12:12:27.599Z,14.52
2023-04-16T12:14:57.731Z,11.80
2023-04-16T12:17:28.305Z,11.25
2023-04-16T12:19:58.624Z,14.48
2023-04-16T12:22:31.702Z,20.60
2023-04-16T12:25:02.951Z,12.07
2023-04-16T12:27:48.579Z,8.55
2023-04-16T12:30:19.778Z,13.07
2023-04-16T12:32:49.498Z,8.20
2023-04-16T12:35:31.475Z,13.27
2023-04-16T12:37:59.609Z,8.13
2023-04-16T12:40:29.264Z,10.35
2023-04-16T12:42:57.538Z,8.98
2023-04-16T12:45:26.388Z,8.25
2023-04-16T12:47:54.595Z,6.47
2023-04-16T12:50:22.831Z,9.05
2023-04-16T12:52:51.106Z,8.52
2023-04-16T12:55:19.510Z,6.88
2023-04-16T12:57:53.011Z,6.93
2023-04-16T13:00:22.714Z,8.25
2023-04-16T13:02:52.828Z,9.93
2023-04-16T13:05:24.108Z,8.57
2023-04-16T13:07:52.286Z,6.75
2023-04-16T13:10:23.653Z,5.85
2023-04-16T13:12:53.572Z,6.43
2023-04-16T13:15:22.074Z,7.65
2023-04-16T13:17:50.735Z,7.85
2023-04-16T13:20:23.874Z,6.07
2023-04-16T13:22:52.553Z,7.60
2023-04-16T13:25:20.645Z,8.07
2023-04-16T13:27:48.682Z,6.75
2023-04-16T13:30:18.451Z,9.90
2023-04-16T13:32:47.888Z,7.43
2023-04-16T13:35:19.085Z,6.75
2023-04-16T13:37:47.512Z,6.15
2023-04-16T13:40:15.837Z,6.78
2023-04-16T13:42:43.942Z,5.32
2023-04-16T13:45:12.334Z,7.18
2023-04-16T13:47:42.952Z,6.10
2023-04-16T13:50:12.143Z,5.60
2023-04-16T13:52:40.214Z,5.80
2023-04-16T13:55:10.377Z,5.82
2023-04-16T13:57:39.736Z,5.25
2023-04-16T14:00:11.862Z,5.07
2023-04-16T14:02:46.147Z,8.27
2023-04-16T14:05:14.513Z,4.68
2023-04-16T14:07:42.786Z,6.88
2023-04-16T14:10:12.282Z,4.55
2023-04-16T14:12:40.672Z,5.80
2023-04-16T14:15:14.939Z,5.95
2023-04-16T14:17:45.182Z,5.10
2023-04-16T14:20:15.954Z,7.93
2023-04-16T14:22:45.076Z,7.82
2023-04-16T14:25:13.585Z,5.82
2023-04-16T14:27:42.639Z,6.70
2023-04-16T14:30:11.476Z,12.60
2023-04-16T14:32:40.117Z,16.60
2023-04-16T14:35:12.046Z,27.55
2023-04-16T14:37:40.825Z,8.77
2023-04-16T14:40:12.489Z,10.43
2023-04-16T14:42:41.524Z,10.68
2023-04-16T14:45:17.626Z,24.20
2023-04-16T14:47:47.999Z,11.10
2023-04-16T14:50:19.529Z,17.63
2023-04-16T14:52:47.810Z,13.10
2023-04-16T14:55:18.381Z,16.30
2023-04-16T14:57:46.534Z,7.47
2023-04-16T15:00:19.007Z,12.50
2023-04-16T15:02:48.567Z,13.07
2023-04-16T15:05:18.751Z,16.42
2023-04-16T15:07:47.353Z,5.90
2023-04-16T15:10:15.610Z,10.38
2023-04-16T15:12:43.745Z,6.72
2023-04-16T15:15:12.627Z,10.75
2023-04-16T15:17:41.575Z,7.80
2023-04-16T15:20:11.118Z,8.65
2023-04-16T15:22:41.187Z,9.32
2023-04-16T15:25:10.155Z,9.30
2023-04-16T15:27:39.680Z,9.95
2023-04-16T15:30:09.191Z,10.82
2023-04-16T15:32:37.417Z,10.57
2023-04-16T15:35:06.341Z,11.93
2023-04-16T15:37:34.792Z,9.18
2023-04-16T15:40:07.981Z,13.15
2023-04-16T15:42:36.307Z,7.95
2023-04-16T15:45:04.471Z,10.13
2023-04-16T15:47:32.651Z,10.40
2023-04-16T15:50:01.028Z,12.25
2023-04-16T15:52:29.815Z,11.40
2023-04-16T15:54:57.996Z,11.52
2023-04-16T15:57:28.953Z,11.43
2023-04-16T16:00:06.476Z,14.50
2023-04-16T16:02:36.377Z,9.13
2023-04-16T16:05:04.910Z,7.28
2023-04-16T16:07:33.132Z,8.10
2023-04-16T16:10:01.573Z,6.47
2023-04-16T16:12:31.716Z,5.85
2023-04-16T16:15:00.476Z,7.97
2023-04-16T16:17:29.362Z,7.78
2023-04-16T16:19:57.909Z,8.18
2023-04-16T16:22:26.167Z,5.97
2023-04-16T16:24:57.787Z,7.72
2023-04-16T16:27:25.969Z,9.43
2023-04-16T16:29:55.918Z,10.63
2023-04-16T16:32:24.285Z,8.98
2023-04-16T16:34:52.371Z,7.50
2023-04-16T16:37:20.440Z,11.85
2023-04-16T16:39:48.557Z,9.95
2023-04-16T16:42:19.364Z,6.50
2023-04-16T16:44:49.000Z,7.57
2023-04-16T16:47:18.612Z,8.45
2023-04-16T16:49:48.066Z,8.48
2023-04-16T16:52:18.529Z,9.15
2023-04-16T16:54:46.871Z,8.05
2023-04-16T16:57:15.547Z,5.20
2023-04-16T16:59:44.003Z,8.80
2023-04-16T17:02:12.398Z,11.80
2023-04-16T17:04:42.033Z,12.18
2023-04-16T17:07:10.300Z,10.48
2023-04-16T17:09:38.915Z,8.27
2023-04-16T17:12:07.806Z,9.85
2023-04-16T17:14:36.277Z,24.63
2023-04-16T17:17:04.476Z,24.17
2023-04-16T17:19:32.568Z,17.75
2023-04-16T17:22:02.061Z,29.35
2023-04-16T17:24:30.277Z,32.30
2023-04-16T17:26:58.570Z,23.38
2023-04-16T17:29:26.950Z,20.08
2023-04-16T17:31:55.132Z,14.07
2023-04-16T17:34:23.316Z,17.55
2023-04-16T17:36:51.702Z,18.88
2023-04-16T17:39:22.472Z,19.10
2023-04-16T17:41:54.394Z,15.45
2023-04-16T17:44:23.249Z,17.30
2023-04-16T17:46:51.463Z,18.23
2023-04-16T17:49:19.667Z,13.73
2023-04-16T17:51:47.760Z,16.80
2023-04-16T17:54:15.946Z,17.58
2023-04-16T17:56:46.181Z,16.02
2023-04-16T17:59:14.406Z,14.90
2023-04-16T18:01:42.676Z,15.48
2023-04-16T18:04:11.530Z,15.18
2023-04-16T18:06:40.462Z,14.97
2023-04-16T18:09:08.708Z,16.15
2023-04-16T18:11:37.216Z,12.33
2023-04-16T18:14:10.136Z,24.70
2023-04-16T18:16:38.646Z,15.50
2023-04-16T18:19:07.083Z,14.50
2023-04-16T18:21:35.887Z,13.20
2023-04-16T18:24:04.070Z,14.70
2023-04-16T18:26:35.695Z,16.90
2023-04-16T18:29:04.228Z,11.73
2023-04-16T18:31:34.455Z,12.93
2023-04-16T18:34:02.909Z,12.97
2023-04-16T18:36:31.339Z,9.70
2023-04-16T18:39:02.437Z,15.93
2023-04-16T18:41:31.298Z,9.60
2023-04-16T18:43:59.477Z,13.33
2023-04-16T18:46:28.006Z,13.97
2023-04-16T18:48:59.046Z,8.83
2023-04-16T18:51:27.417Z,12.00
2023-04-16T18:53:55.557Z,13.67
2023-04-16T18:56:23.737Z,15.10
2023-04-16T18:58:51.949Z,17.90
2023-04-16T19:01:20.425Z,13.33
2023-04-16T19:03:48.905Z,13.13
2023-04-16T19:06:18.538Z,11.07
2023-04-16T19:08:46.653Z,11.40
2023-04-16T19:11:14.774Z,10.30
2023-04-16T19:13:43.360Z,9.33
2023-04-16T19:16:12.482Z,8.07
2023-04-16T19:18:40.674Z,8.33
2023-04-16T19:21:10.968Z,10.70
2023-04-16T19:23:40.631Z,9.33
2023-04-16T19:26:08.736Z,7.07
2023-04-16T19:28:38.803Z,12.43
2023-04-16T19:31:07.437Z,6.27
2023-04-16T19:33:35.672Z,8.33
2023-04-16T19:36:03.758Z,8.30
2023-04-16T19:38:32.663Z,7.37
2023-04-16T19:41:02.888Z,10.60
2023-04-16T19:43:32.045Z,8.80
2023-04-16T19:46:00.275Z,9.77
2023-04-16T19:48:28.976Z,7.87
2023-04-16T19:50:57.104Z,4.83
2023-04-16T19:53:25.500Z,8.23
2023-04-16T19:55:53.601Z,11.27
2023-04-16T19:58:23.309Z,9.50
2023-04-16T20:00:51.609Z,12.40
2023-04-16T20:03:19.919Z,9.33
2023-04-16T20:05:50.015Z,10.23
2023-04-16T20:08:18.324Z,11.80
2023-04-16T20:10:46.589Z,9.87
2023-04-16T20:13:16.089Z,12.53
2023-04-16T20:15:47.969Z,10.83
2023-04-16T20:18:16.030Z,8.73
2023-04-16T20:20:44.209Z,8.87
2023-04-16T20:23:12.423Z,10.87
2023-04-16T20:25:42.642Z,12.53
2023-04-16T20:28:10.818Z,13.37
2023-04-16T20:30:39.996Z,11.60
2023-04-16T20:33:10.537Z,9.73
2023-04-16T20:35:38.610Z,11.70
2023-04-16T20:38:06.836Z,13.43
2023-04-16T20:40:38.183Z,11.67
2023-04-16T20:43:10.180Z,16.60
2023-04-16T20:45:41.139Z,16.63
2023-04-16T20:48:11.982Z,11.47
2023-04-16T20:50:40.142Z,11.17
2023-04-16T20:53:08.252Z,11.47
2023-04-16T20:55:36.432Z,12.07
2023-04-16T20:58:04.508Z,13.07
2023-04-16T21:00:49.116Z,13.90
2023-04-16T21:03:34.282Z,13.17
2023-04-16T21:06:03.707Z,15.37
2023-04-16T21:08:31.729Z,10.90
2023-04-16T21:10:59.950Z,12.80
2023-04-16T21:13:28.009Z,12.23
2023-04-16T21:15:56.193Z,14.97
2023-04-16T21:18:24.373Z,12.17
2023-04-16T21:20:54.861Z,16.63
2023-04-16T21:23:23.030Z,12.83
2023-04-16T21:25:51.212Z,12.90
2023-04-16T21:28:19.377Z,13.87
2023-04-16T21:30:47.516Z,14.77
2023-04-16T21:33:16.799Z,12.70
2023-04-16T21:35:44.872Z,12.47
2023-04-16T21:38:14.371Z,12.70
2023-04-16T21:40:42.474Z,12.33
2023-04-16T21:43:10.550Z,13.37
2023-04-16T21:45:38.815Z,13.70
2023-04-16T21:48:07.588Z,14.03
2023-04-16T21:50:36.191Z,11.30
2023-04-16T21:53:06.360Z,14.10
2023-04-16T21:55:36.229Z,9.53
2023-04-16T21:58:04.992Z,13.87
2023-04-16T22:00:33.289Z,14.80
2023-04-16T22:03:04.386Z,12.40
2023-04-16T22:05:33.623Z,16.27
2023-04-16T22:08:10.817Z,13.30
2023-04-16T22:10:50.951Z,10.73
2023-04-16T22:13:19.083Z,16.03
2023-04-16T22:15:48.052Z,14.43
2023-04-16T22:18:18.356Z,12.93
2023-04-16T22:20:47.382Z,12.57
2023-04-16T22:23:16.184Z,15.20
2023-04-16T22:25:44.532Z,11.20
2023-04-16T22:28:14.237Z,17.93
2023-04-16T22:30:42.393Z,15.77
2023-04-16T22:33:11.372Z,14.10
2023-04-16T22:35:40.381Z,14.83
2023-04-16T22:38:08.966Z,12.80
2023-04-16T22:40:37.277Z,12.87
2023-04-16T22:43:05.330Z,13.17
2023-04-16T22:45:34.785Z,19.63
2023-04-16T22:48:02.931Z,12.67
2023-04-16T22:50:32.374Z,16.30
2023-04-16T22:53:00.443Z,16.33
2023-04-16T22:55:28.593Z,17.20
2023-04-16T22:57:56.652Z,19.43
2023-04-16T23:00:25.078Z,17.40
2023-04-16T23:02:54.679Z,17.67
2023-04-16T23:05:23.033Z,20.70
2023-04-16T23:07:51.207Z,22.93
2023-04-16T23:10:19.388Z,19.13
2023-04-16T23:12:47.511Z,25.93
2023-04-16T23:15:17.600Z,21.67
2023-04-16T23:17:46.214Z,21.87
2023-04-16T23:20:15.722Z,24.77
2023-04-16T23:22:43.843Z,23.57
2023-04-16T23:25:12.276Z,22.50
2023-04-16T23:27:40.376Z,24.17
2023-04-16T23:30:09.607Z,23.03
2023-04-16T23:32:37.913Z,23.30
2023-04-16T23:35:06.772Z,23.63
2023-04-16T23:37:36.385Z,22.77
2023-04-16T23:40:04.993Z,21.00
2023-04-16T23:42:33.229Z,22.70
2023-04-16T23:45:03.664Z,17.17
2023-04-16T23:47:32.068Z,18.03
2023-04-16T23:50:00.555Z,16.20
2023-04-16T23:52:28.679Z,16.77
2023-04-16T23:54:58.260Z,16.73
2023-04-16T23:57:26.326Z,13.93
2023-04-16T23:59:55.339Z,13.27
